Accueil
METAR-TAF:

METAR-TAF

Aéroports :

Malekula, Vanuatu

latitude: 16-27-26S, longitude: 167-49-42E, altitude: 2 m

Observation

Le bulletin a été fait il y a 1 heure et 28 minutes, à 06:00 UTC
Vent 4 kt de sud
Température 26°C
Humidité 74%
Pression 1007 hPa
Visibilité 10 km ou plus
Nuages fragmentés à une hauteur de 2500 ft

METAR: NVSL 160600Z 17004KT 9999 BKN025 26/21 Q1007 RMK NIL

Heure: 18:28 (07:28 UTC)

Prévision

Le bulletin a été fait il y a 2 heures et 58 minutes, à 04:30 UTC
Prévision valable du 16 à 06 UTC au 17 à 06 UTC
Vent 10 kt de sud-est
Visibilité 10 km ou plus
Nuages épars à une hauteur de 2200 ft
Evoluant progressivement
du 16 à 07 UTC au 16 à 09 UTC
Vent 5 kt de sud-est

TAF: NVSL 160430Z 1606/1706 14010KT 9999 SCT022 BECMG 1607/1609 13005KT

Observations et prévisions météorologiques de plus de 4000 aéroports (messages METAR et TAF).

Les stations disponibles sont représentées par des disques jaunes et rouges sur la carte.

Passer la souris dessus pour voir le nom de la station.

Cliquer dessus pour voir les observations et prévisions météorologiques.

Pour changer de carte: cliquez sur les boutons verts avec une croix noire pour zoomer, sur le bouton vert avec un tiret pour effectuer un zoom arrière, ou sur les flèches vertes pour les cartes adjacentes.


METAR-TAF: